sensor_id;sensor_type;location;lat;lon;timestamp;pressure;altitude;pressure_sealevel;temperature;humidity
64368;BME280;50692;53.314;-6.300;2023-07-28T00:00:20;99925.75;;;18.15;80.39
64368;BME280;50692;53.314;-6.300;2023-07-28T00:03:06;99931.72;;;18.09;80.62
64368;BME280;50692;53.314;-6.300;2023-07-28T00:05:52;99931.75;;;18.00;80.89
64368;BME280;50692;53.314;-6.300;2023-07-28T00:08:38;99925.31;;;17.92;80.88
64368;BME280;50692;53.314;-6.300;2023-07-28T00:11:23;99927.44;;;17.89;80.60
64368;BME280;50692;53.314;-6.300;2023-07-28T00:14:09;99922.66;;;17.83;80.32
64368;BME280;50692;53.314;-6.300;2023-07-28T00:16:56;99926.22;;;17.73;80.15
64368;BME280;50692;53.314;-6.300;2023-07-28T00:19:42;99921.00;;;17.72;79.74
64368;BME280;50692;53.314;-6.300;2023-07-28T00:22:28;99936.34;;;17.70;79.41
64368;BME280;50692;53.314;-6.300;2023-07-28T00:25:14;99929.63;;;17.66;79.32
64368;BME280;50692;53.314;-6.300;2023-07-28T00:28:00;99932.16;;;17.58;79.17
64368;BME280;50692;53.314;-6.300;2023-07-28T00:30:49;99924.28;;;17.56;78.76
64368;BME280;50692;53.314;-6.300;2023-07-28T00:33:35;99928.50;;;17.59;78.71
64368;BME280;50692;53.314;-6.300;2023-07-28T00:36:20;99928.19;;;17.62;78.43
64368;BME280;50692;53.314;-6.300;2023-07-28T00:39:07;99925.97;;;17.57;78.34
64368;BME280;50692;53.314;-6.300;2023-07-28T00:41:52;99918.47;;;17.70;77.48
64368;BME280;50692;53.314;-6.300;2023-07-28T00:44:38;99933.31;;;17.55;77.94
64368;BME280;50692;53.314;-6.300;2023-07-28T00:47:24;99949.19;;;17.47;78.25
64368;BME280;50692;53.314;-6.300;2023-07-28T00:50:10;99948.78;;;17.42;78.38
64368;BME280;50692;53.314;-6.300;2023-07-28T00:52:56;99930.22;;;17.40;78.40
64368;BME280;50692;53.314;-6.300;2023-07-28T00:55:42;99908.28;;;17.46;78.22
64368;BME280;50692;53.314;-6.300;2023-07-28T00:58:30;99915.75;;;17.43;78.40
64368;BME280;50692;53.314;-6.300;2023-07-28T01:01:16;99926.72;;;17.40;79.06
64368;BME280;50692;53.314;-6.300;2023-07-28T01:04:02;99926.03;;;17.28;79.79
64368;BME280;50692;53.314;-6.300;2023-07-28T01:07:06;99912.84;;;17.26;79.88
64368;BME280;50692;53.314;-6.300;2023-07-28T01:10:10;99909.31;;;17.26;79.68
64368;BME280;50692;53.314;-6.300;2023-07-28T01:12:57;99902.72;;;17.20;79.78
64368;BME280;50692;53.314;-6.300;2023-07-28T01:15:43;99898.38;;;17.19;80.09
64368;BME280;50692;53.314;-6.300;2023-07-28T01:18:28;99916.19;;;17.19;80.21
64368;BME280;50692;53.314;-6.300;2023-07-28T01:21:20;99906.66;;;17.16;80.55
64368;BME280;50692;53.314;-6.300;2023-07-28T01:27:02;99915.81;;;17.04;81.17
64368;BME280;50692;53.314;-6.300;2023-07-28T01:29:48;99913.84;;;17.06;81.32
64368;BME280;50692;53.314;-6.300;2023-07-28T01:32:35;99910.06;;;17.09;81.25
64368;BME280;50692;53.314;-6.300;2023-07-28T01:35:22;99922.41;;;17.10;81.65
64368;BME280;50692;53.314;-6.300;2023-07-28T01:38:08;99916.53;;;17.06;81.87
64368;BME280;50692;53.314;-6.300;2023-07-28T01:40:54;99920.88;;;17.07;82.09
64368;BME280;50692;53.314;-6.300;2023-07-28T01:43:40;99927.88;;;17.08;82.09
64368;BME280;50692;53.314;-6.300;2023-07-28T01:46:27;99919.19;;;17.06;82.11
64368;BME280;50692;53.314;-6.300;2023-07-28T01:49:13;99923.53;;;17.07;81.92
64368;BME280;50692;53.314;-6.300;2023-07-28T01:51:58;99921.84;;;17.06;81.95
64368;BME280;50692;53.314;-6.300;2023-07-28T01:54:44;99928.75;;;17.09;81.79
64368;BME280;50692;53.314;-6.300;2023-07-28T01:57:34;99928.88;;;17.07;81.84
64368;BME280;50692;53.314;-6.300;2023-07-28T02:00:19;99926.09;;;17.09;81.67
64368;BME280;50692;53.314;-6.300;2023-07-28T02:03:05;99928.88;;;17.07;81.83
64368;BME280;50692;53.314;-6.300;2023-07-28T02:05:51;99928.03;;;17.07;81.68
64368;BME280;50692;53.314;-6.300;2023-07-28T02:08:38;99918.19;;;17.07;81.83
64368;BME280;50692;53.314;-6.300;2023-07-28T02:11:24;99916.81;;;17.03;82.04
64368;BME280;50692;53.314;-6.300;2023-07-28T02:14:09;99913.28;;;16.93;82.44
64368;BME280;50692;53.314;-6.300;2023-07-28T02:16:55;99922.00;;;16.95;82.69
64368;BME280;50692;53.314;-6.300;2023-07-28T02:19:41;99925.53;;;16.95;82.74
64368;BME280;50692;53.314;-6.300;2023-07-28T02:22:27;99921.31;;;16.93;82.79
64368;BME280;50692;53.314;-6.300;2023-07-28T02:25:13;99914.56;;;16.89;82.99
64368;BME280;50692;53.314;-6.300;2023-07-28T02:27:59;99911.50;;;16.84;83.38
64368;BME280;50692;53.314;-6.300;2023-07-28T02:30:44;99906.44;;;16.81;83.51
64368;BME280;50692;53.314;-6.300;2023-07-28T02:33:30;99903.31;;;16.75;83.76
64368;BME280;50692;53.314;-6.300;2023-07-28T02:36:19;99906.44;;;16.81;83.32
64368;BME280;50692;53.314;-6.300;2023-07-28T02:39:05;99912.16;;;16.76;83.33
64368;BME280;50692;53.314;-6.300;2023-07-28T02:41:50;99903.31;;;16.75;83.19
64368;BME280;50692;53.314;-6.300;2023-07-28T02:44:36;99913.16;;;16.75;82.74
64368;BME280;50692;53.314;-6.300;2023-07-28T02:47:22;99909.38;;;16.77;82.46
64368;BME280;50692;53.314;-6.300;2023-07-28T02:50:08;99898.13;;;16.74;82.15
64368;BME280;50692;53.314;-6.300;2023-07-28T02:52:54;99896.31;;;16.74;82.37
64368;BME280;50692;53.314;-6.300;2023-07-28T02:55:43;99894.59;;;16.73;82.63
64368;BME280;50692;53.314;-6.300;2023-07-28T02:58:29;99897.28;;;16.73;83.09
64368;BME280;50692;53.314;-6.300;2023-07-28T03:01:15;99891.09;;;16.73;83.34
64368;BME280;50692;53.314;-6.300;2023-07-28T03:04:03;99890.22;;;16.72;83.71
64368;BME280;50692;53.314;-6.300;2023-07-28T03:06:49;99897.28;;;16.73;83.75
64368;BME280;50692;53.314;-6.300;2023-07-28T03:09:34;99893.47;;;16.76;83.93
64368;BME280;50692;53.314;-6.300;2023-07-28T03:12:20;99888.03;;;16.77;84.35
64368;BME280;50692;53.314;-6.300;2023-07-28T03:15:06;99890.69;;;16.77;84.32
64368;BME280;50692;53.314;-6.300;2023-07-28T03:17:52;99891.53;;;16.78;84.18
64368;BME280;50692;53.314;-6.300;2023-07-28T03:20:40;99885.03;;;16.71;84.41
64368;BME280;50692;53.314;-6.300;2023-07-28T03:23:25;99895.31;;;16.75;84.31
64368;BME280;50692;53.314;-6.300;2023-07-28T03:26:11;99892.25;;;16.80;83.96
64368;BME280;50692;53.314;-6.300;2023-07-28T03:28:57;99889.00;;;16.76;84.09
64368;BME280;50692;53.314;-6.300;2023-07-28T03:31:43;99884.50;;;16.77;83.99
64368;BME280;50692;53.314;-6.300;2023-07-28T03:34:29;99887.88;;;16.79;83.80
64368;BME280;50692;53.314;-6.300;2023-07-28T03:37:14;99881.84;;;16.77;83.61
64368;BME280;50692;53.314;-6.300;2023-07-28T03:40:00;99885.34;;;16.77;83.64
64368;BME280;50692;53.314;-6.300;2023-07-28T03:42:46;99878.91;;;16.80;83.33
64368;BME280;50692;53.314;-6.300;2023-07-28T03:45:32;99877.34;;;16.77;83.24
64368;BME280;50692;53.314;-6.300;2023-07-28T03:48:18;99882.81;;;16.86;83.15
64368;BME280;50692;53.314;-6.300;2023-07-28T03:51:04;99876.91;;;16.82;83.16
64368;BME280;50692;53.314;-6.300;2023-07-28T03:53:50;99880.84;;;16.88;82.94
64368;BME280;50692;53.314;-6.300;2023-07-28T03:56:35;99885.75;;;16.83;83.26
64368;BME280;50692;53.314;-6.300;2023-07-28T03:59:21;99883.25;;;16.81;83.27
64368;BME280;50692;53.314;-6.300;2023-07-28T04:02:07;99884.25;;;16.80;83.43
64368;BME280;50692;53.314;-6.300;2023-07-28T04:04:56;99874.97;;;16.74;83.48
64368;BME280;50692;53.314;-6.300;2023-07-28T04:07:42;99884.38;;;16.88;83.03
64368;BME280;50692;53.314;-6.300;2023-07-28T04:10:28;99888.16;;;16.86;83.22
64368;BME280;50692;53.314;-6.300;2023-07-28T04:13:14;99892.78;;;16.93;82.83
64368;BME280;50692;53.314;-6.300;2023-07-28T04:16:00;99883.09;;;16.92;82.69
64368;BME280;50692;53.314;-6.300;2023-07-28T04:18:46;99891.25;;;16.91;82.61
64368;BME280;50692;53.314;-6.300;2023-07-28T04:21:32;99886.59;;;16.93;82.46
64368;BME280;50692;53.314;-6.300;2023-07-28T04:24:17;99888.84;;;16.97;81.95
64368;BME280;50692;53.314;-6.300;2023-07-28T04:27:03;99897.00;;;16.96;81.90
64368;BME280;50692;53.314;-6.300;2023-07-28T04:29:49;99898.28;;;17.01;81.56
64368;BME280;50692;53.314;-6.300;2023-07-28T04:32:35;99902.47;;;17.04;81.43
64368;BME280;50692;53.314;-6.300;2023-07-28T04:35:21;99900.50;;;17.06;81.22
64368;BME280;50692;53.314;-6.300;2023-07-28T04:38:07;99895.28;;;17.05;81.17
64368;BME280;50692;53.314;-6.300;2023-07-28T04:40:52;99902.47;;;17.04;81.17
64368;BME280;50692;53.314;-6.300;2023-07-28T04:43:39;99906.97;;;17.03;80.45
64368;BME280;50692;53.314;-6.300;2023-07-28T04:46:24;99906.13;;;17.03;80.14
64368;BME280;50692;53.314;-6.300;2023-07-28T04:49:10;99903.84;;;17.08;79.49
64368;BME280;50692;53.314;-6.300;2023-07-28T04:51:56;99909.91;;;17.10;79.24
64368;BME280;50692;53.314;-6.300;2023-07-28T04:54:42;99901.63;;;17.13;79.04
64368;BME280;50692;53.314;-6.300;2023-07-28T04:57:28;99911.19;;;17.16;78.81
64368;BME280;50692;53.314;-6.300;2023-07-28T05:00:14;99913.84;;;17.16;78.54
64368;BME280;50692;53.314;-6.300;2023-07-28T05:03:00;99910.47;;;17.14;78.44
64368;BME280;50692;53.314;-6.300;2023-07-28T05:05:46;99907.34;;;17.18;78.19
64368;BME280;50692;53.314;-6.300;2023-07-28T05:08:31;99918.47;;;17.14;78.30
64368;BME280;50692;53.314;-6.300;2023-07-28T05:11:17;99913.13;;;17.14;78.22
64368;BME280;50692;53.314;-6.300;2023-07-28T05:14:03;99912.69;;;17.18;78.03
64368;BME280;50692;53.314;-6.300;2023-07-28T05:16:51;99926.22;;;17.17;77.87
64368;BME280;50692;53.314;-6.300;2023-07-28T05:19:37;99909.75;;;17.12;77.76
64368;BME280;50692;53.314;-6.300;2023-07-28T05:22:23;99915.81;;;17.14;77.33
64368;BME280;50692;53.314;-6.300;2023-07-28T05:25:09;99929.75;;;16.98;77.34
64368;BME280;50692;53.314;-6.300;2023-07-28T05:27:54;99919.34;;;16.85;77.87
64368;BME280;50692;53.314;-6.300;2023-07-28T05:30:40;99924.94;;;16.82;78.36
64368;BME280;50692;53.314;-6.300;2023-07-28T05:33:26;99929.59;;;16.80;78.53
64368;BME280;50692;53.314;-6.300;2023-07-28T05:36:12;99925.94;;;16.81;78.97
64368;BME280;50692;53.314;-6.300;2023-07-28T05:38:58;99927.91;;;16.79;79.24
64368;BME280;50692;53.314;-6.300;2023-07-28T05:41:43;99917.59;;;16.65;80.38
64368;BME280;50692;53.314;-6.300;2023-07-28T05:44:29;99922.94;;;16.65;80.94
64368;BME280;50692;53.314;-6.300;2023-07-28T05:47:15;99918.72;;;16.52;80.98
64368;BME280;50692;53.314;-6.300;2023-07-28T05:50:01;99927.31;;;16.56;81.51
64368;BME280;50692;53.314;-6.300;2023-07-28T05:52:47;99919.28;;;16.46;81.69
64368;BME280;50692;53.314;-6.300;2023-07-28T05:55:32;99913.81;;;16.38;82.05
64368;BME280;50692;53.314;-6.300;2023-07-28T05:58:19;99915.06;;;16.44;82.01
64368;BME280;50692;53.314;-6.300;2023-07-28T06:01:06;99920.13;;;16.47;81.31
64368;BME280;50692;53.314;-6.300;2023-07-28T06:03:51;99915.34;;;16.50;81.20
64368;BME280;50692;53.314;-6.300;2023-07-28T06:06:41;99923.53;;;16.59;80.91
64368;BME280;50692;53.314;-6.300;2023-07-28T06:09:27;99919.31;;;16.66;80.57
64368;BME280;50692;53.314;-6.300;2023-07-28T06:12:13;99920.16;;;16.66;80.12
64368;BME280;50692;53.314;-6.300;2023-07-28T06:15:01;99922.09;;;16.64;80.05
64368;BME280;50692;53.314;-6.300;2023-07-28T06:17:47;99913.81;;;16.48;78.68
64368;BME280;50692;53.314;-6.300;2023-07-28T06:20:34;99905.94;;;16.46;78.91
64368;BME280;50692;53.314;-6.300;2023-07-28T06:23:20;99916.47;;;16.58;78.50
64368;BME280;50692;53.314;-6.300;2023-07-28T06:26:06;99925.50;;;16.66;78.06
64368;BME280;50692;53.314;-6.300;2023-07-28T06:28:51;99911.47;;;16.74;77.71
64368;BME280;50692;53.314;-6.300;2023-07-28T06:31:37;99912.03;;;16.77;77.39
64368;BME280;50692;53.314;-6.300;2023-07-28T06:34:23;99917.66;;;16.74;76.78
64368;BME280;50692;53.314;-6.300;2023-07-28T06:37:09;99911.19;;;16.77;76.83
64368;BME280;50692;53.314;-6.300;2023-07-28T06:39:54;99914.84;;;16.86;76.81
64368;BME280;50692;53.314;-6.300;2023-07-28T06:42:41;99917.06;;;16.90;76.41
64368;BME280;50692;53.314;-6.300;2023-07-28T06:45:27;99895.75;;;16.81;75.35
64368;BME280;50692;53.314;-6.300;2023-07-28T06:48:13;99901.22;;;16.89;74.82
64368;BME280;50692;53.314;-6.300;2023-07-28T06:50:59;99904.72;;;16.89;75.19
64368;BME280;50692;53.314;-6.300;2023-07-28T06:53:44;99916.13;;;16.91;74.45
64368;BME280;50692;53.314;-6.300;2023-07-28T06:56:30;99904.84;;;16.97;74.07
64368;BME280;50692;53.314;-6.300;2023-07-28T06:59:16;99904.84;;;17.07;72.84
64368;BME280;50692;53.314;-6.300;2023-07-28T07:02:02;99894.72;;;17.20;70.64
64368;BME280;50692;53.314;-6.300;2023-07-28T07:04:48;99903.22;;;17.43;69.70
64368;BME280;50692;53.314;-6.300;2023-07-28T07:07:33;99899.66;;;17.62;68.46
64368;BME280;50692;53.314;-6.300;2023-07-28T07:10:20;99883.03;;;17.78;67.93
64368;BME280;50692;53.314;-6.300;2023-07-28T07:13:06;99883.72;;;17.80;67.15
64368;BME280;50692;53.314;-6.300;2023-07-28T07:15:52;99879.47;;;17.87;66.16
64368;BME280;50692;53.314;-6.300;2023-07-28T07:18:37;99884.31;;;18.02;65.57
64368;BME280;50692;53.314;-6.300;2023-07-28T07:21:23;99885.63;;;18.15;64.93
64368;BME280;50692;53.314;-6.300;2023-07-28T07:24:09;99889.00;;;18.17;64.17
64368;BME280;50692;53.314;-6.300;2023-07-28T07:26:55;99890.00;;;18.16;63.92
64368;BME280;50692;53.314;-6.300;2023-07-28T07:29:41;99892.94;;;18.23;63.88
64368;BME280;50692;53.314;-6.300;2023-07-28T07:32:27;99887.72;;;18.21;61.94
64368;BME280;50692;53.314;-6.300;2023-07-28T07:35:13;99897.19;;;18.16;61.05
64368;BME280;50692;53.314;-6.300;2023-07-28T07:37:58;99895.47;;;18.15;60.93
64368;BME280;50692;53.314;-6.300;2023-07-28T07:40:47;99893.53;;;18.17;60.41
64368;BME280;50692;53.314;-6.300;2023-07-28T07:43:33;99886.72;;;18.22;60.79
64368;BME280;50692;53.314;-6.300;2023-07-28T07:46:19;99887.50;;;18.33;61.00
64368;BME280;50692;53.314;-6.300;2023-07-28T07:49:05;99891.09;;;18.41;60.63
64368;BME280;50692;53.314;-6.300;2023-07-28T07:51:51;99895.16;;;18.45;59.91
64368;BME280;50692;53.314;-6.300;2023-07-28T07:54:37;99890.78;;;18.44;59.70
64368;BME280;50692;53.314;-6.300;2023-07-28T07:57:23;99899.88;;;18.52;58.61
64368;BME280;50692;53.314;-6.300;2023-07-28T08:00:09;99890.78;;;18.44;58.63
64368;BME280;50692;53.314;-6.300;2023-07-28T08:02:56;99893.25;;;18.56;59.04
64368;BME280;50692;53.314;-6.300;2023-07-28T08:05:42;99895.09;;;18.73;58.97
64368;BME280;50692;53.314;-6.300;2023-07-28T08:08:28;99885.84;;;18.67;57.61
64368;BME280;50692;53.314;-6.300;2023-07-28T08:11:13;99876.72;;;18.60;57.58
64368;BME280;50692;53.314;-6.300;2023-07-28T08:13:59;99890.44;;;18.75;57.72
64368;BME280;50692;53.314;-6.300;2023-07-28T08:16:45;99889.06;;;18.89;58.02
64368;BME280;50692;53.314;-6.300;2023-07-28T08:19:31;99896.38;;;19.05;58.11
64368;BME280;50692;53.314;-6.300;2023-07-28T08:22:17;99893.63;;;18.97;58.06
64368;BME280;50692;53.314;-6.300;2023-07-28T08:25:03;99891.56;;;18.90;58.75
64368;BME280;50692;53.314;-6.300;2023-07-28T08:27:50;99884.84;;;18.86;59.32
64368;BME280;50692;53.314;-6.300;2023-07-28T08:30:35;99885.25;;;18.91;59.77
64368;BME280;50692;53.314;-6.300;2023-07-28T08:33:21;99887.44;;;18.96;59.80
64368;BME280;50692;53.314;-6.300;2023-07-28T08:36:07;99882.06;;;19.14;59.65
64368;BME280;50692;53.314;-6.300;2023-07-28T08:38:53;99875.50;;;19.34;58.96
64368;BME280;50692;53.314;-6.300;2023-07-28T08:41:39;99887.59;;;19.64;58.55
64368;BME280;50692;53.314;-6.300;2023-07-28T08:44:25;99880.56;;;19.72;58.32
64368;BME280;50692;53.314;-6.300;2023-07-28T08:47:12;99885.09;;;19.71;57.55
64368;BME280;50692;53.314;-6.300;2023-07-28T08:49:58;99879.28;;;19.84;57.89
64368;BME280;50692;53.314;-6.300;2023-07-28T08:52:43;99873.56;;;19.79;58.13
64368;BME280;50692;53.314;-6.300;2023-07-28T08:55:30;99873.25;;;19.82;57.90
64368;BME280;50692;53.314;-6.300;2023-07-28T08:58:17;99880.91;;;20.11;57.31
64368;BME280;50692;53.314;-6.300;2023-07-28T09:01:04;99878.91;;;20.21;57.23
64368;BME280;50692;53.314;-6.300;2023-07-28T09:03:50;99878.19;;;20.62;56.78
64368;BME280;50692;53.314;-6.300;2023-07-28T09:06:36;99873.16;;;20.67;54.95
64368;BME280;50692;53.314;-6.300;2023-07-28T09:09:22;99875.16;;;20.73;54.63
64368;BME280;50692;53.314;-6.300;2023-07-28T09:12:09;99883.72;;;20.76;54.89
64368;BME280;50692;53.314;-6.300;2023-07-28T09:14:57;99875.50;;;20.86;55.51
64368;BME280;50692;53.314;-6.300;2023-07-28T09:17:44;99875.69;;;20.93;55.20
64368;BME280;50692;53.314;-6.300;2023-07-28T09:20:35;99879.88;;;21.03;55.10
64368;BME280;50692;53.314;-6.300;2023-07-28T09:23:28;99878.88;;;20.96;55.50
64368;BME280;50692;53.314;-6.300;2023-07-28T09:26:15;99866.94;;;20.82;55.57
64368;BME280;50692;53.314;-6.300;2023-07-28T09:29:01;99870.97;;;20.62;56.72
64368;BME280;50692;53.314;-6.300;2023-07-28T09:32:04;99878.03;;;20.63;56.98
64368;BME280;50692;53.314;-6.300;2023-07-28T09:35:05;99874.84;;;20.68;57.62
64368;BME280;50692;53.314;-6.300;2023-07-28T09:37:51;99874.97;;;20.66;57.55
64368;BME280;50692;53.314;-6.300;2023-07-28T09:40:39;99874.84;;;20.59;58.12
64368;BME280;50692;53.314;-6.300;2023-07-28T09:43:26;99870.31;;;20.60;58.19
64368;BME280;50692;53.314;-6.300;2023-07-28T09:46:13;99872.81;;;20.62;58.38
64368;BME280;50692;53.314;-6.300;2023-07-28T09:49:09;99875.16;;;20.73;58.52
64368;BME280;50692;53.314;-6.300;2023-07-28T09:52:00;99878.53;;;20.75;58.47
64368;BME280;50692;53.314;-6.300;2023-07-28T09:54:51;99863.09;;;20.85;58.66
64368;BME280;50692;53.314;-6.300;2023-07-28T10:00:29;99854.16;;;21.09;58.61
64368;BME280;50692;53.314;-6.300;2023-07-28T10:03:16;99861.69;;;21.30;58.46
64368;BME280;50692;53.314;-6.300;2023-07-28T10:06:03;99866.72;;;21.33;58.35
64368;BME280;50692;53.314;-6.300;2023-07-28T10:08:49;99862.19;;;21.42;58.00
64368;BME280;50692;53.314;-6.300;2023-07-28T10:11:35;99851.53;;;21.65;57.72
64368;BME280;50692;53.314;-6.300;2023-07-28T10:14:32;99843.94;;;21.76;56.28
64368;BME280;50692;53.314;-6.300;2023-07-28T10:17:30;99852.91;;;21.92;55.22
64368;BME280;50692;53.314;-6.300;2023-07-28T10:20:33;99827.25;;;21.81;54.31
64368;BME280;50692;53.314;-6.300;2023-07-28T10:23:21;99836.88;;;21.75;55.12
64368;BME280;50692;53.314;-6.300;2023-07-28T10:26:09;99831.16;;;21.78;54.40
64368;BME280;50692;53.314;-6.300;2023-07-28T10:28:55;99834.47;;;21.80;54.94
64368;BME280;50692;53.314;-6.300;2023-07-28T10:31:54;99832.13;;;21.77;54.01
64368;BME280;50692;53.314;-6.300;2023-07-28T10:34:41;99821.88;;;21.81;54.01
64368;BME280;50692;53.314;-6.300;2023-07-28T10:37:45;99827.47;;;22.02;53.96
64368;BME280;50692;53.314;-6.300;2023-07-28T10:40:35;99817.81;;;22.24;53.09
64368;BME280;50692;53.314;-6.300;2023-07-28T10:43:22;99819.59;;;22.32;51.48
64368;BME280;50692;53.314;-6.300;2023-07-28T10:46:10;99809.59;;;22.41;51.47
64368;BME280;50692;53.314;-6.300;2023-07-28T10:49:04;99809.84;;;22.31;51.20
64368;BME280;50692;53.314;-6.300;2023-07-28T10:51:51;99795.91;;;22.50;50.82
64368;BME280;50692;53.314;-6.300;2023-07-28T10:54:36;99795.50;;;22.77;48.98
64368;BME280;50692;53.314;-6.300;2023-07-28T10:57:23;99790.13;;;22.91;45.75
64368;BME280;50692;53.314;-6.300;2023-07-28T11:00:12;99799.03;;;23.00;45.01
64368;BME280;50692;53.314;-6.300;2023-07-28T11:02:58;99794.75;;;23.06;43.28
64368;BME280;50692;53.314;-6.300;2023-07-28T11:05:45;99787.88;;;23.33;43.90
64368;BME280;50692;53.314;-6.300;2023-07-28T11:08:31;99787.22;;;23.16;44.21
64368;BME280;50692;53.314;-6.300;2023-07-28T11:11:17;99771.97;;;23.23;44.47
64368;BME280;50692;53.314;-6.300;2023-07-28T11:14:07;99784.94;;;23.64;44.34
64368;BME280;50692;53.314;-6.300;2023-07-28T11:16:53;99779.75;;;23.77;42.93
64368;BME280;50692;53.314;-6.300;2023-07-28T11:19:39;99780.28;;;23.87;42.17
64368;BME280;50692;53.314;-6.300;2023-07-28T11:22:25;99762.97;;;23.97;42.30
64368;BME280;50692;53.314;-6.300;2023-07-28T11:25:11;99772.06;;;23.96;42.40
64368;BME280;50692;53.314;-6.300;2023-07-28T11:27:57;99771.97;;;24.04;43.08
64368;BME280;50692;53.314;-6.300;2023-07-28T11:30:46;99771.06;;;23.97;43.38
64368;BME280;50692;53.314;-6.300;2023-07-28T11:33:33;99765.22;;;23.93;42.27
64368;BME280;50692;53.314;-6.300;2023-07-28T11:36:23;99751.28;;;23.89;43.30
64368;BME280;50692;53.314;-6.300;2023-07-28T11:39:10;99751.06;;;23.91;43.37
64368;BME280;50692;53.314;-6.300;2023-07-28T11:41:57;99758.56;;;23.96;43.20
64368;BME280;50692;53.314;-6.300;2023-07-28T11:44:46;99752.66;;;23.85;43.22
64368;BME280;50692;53.314;-6.300;2023-07-28T11:47:31;99767.41;;;24.04;44.10
64368;BME280;50692;53.314;-6.300;2023-07-28T11:50:28;99756.56;;;24.19;43.86
64368;BME280;50692;53.314;-6.300;2023-07-28T11:53:15;99764.25;;;24.01;42.71
64368;BME280;50692;53.314;-6.300;2023-07-28T11:56:01;99761.88;;;24.12;43.66
64368;BME280;50692;53.314;-6.300;2023-07-28T11:58:51;99762.13;;;24.17;42.71
64368;BME280;50692;53.314;-6.300;2023-07-28T12:02:03;99763.22;;;24.02;43.59
64368;BME280;50692;53.314;-6.300;2023-07-28T12:04:50;99753.84;;;23.98;44.27
64368;BME280;50692;53.314;-6.300;2023-07-28T12:07:39;99750.94;;;24.21;44.21
64368;BME280;50692;53.314;-6.300;2023-07-28T12:10:25;99756.72;;;24.39;44.33
64368;BME280;50692;53.314;-6.300;2023-07-28T12:13:11;99753.28;;;24.45;44.30
64368;BME280;50692;53.314;-6.300;2023-07-28T12:15:56;99756.88;;;24.52;44.00
64368;BME280;50692;53.314;-6.300;2023-07-28T12:18:45;99759.53;;;25.02;43.14
64368;BME280;50692;53.314;-6.300;2023-07-28T12:21:32;99753.41;;;25.15;42.65
64368;BME280;50692;53.314;-6.300;2023-07-28T12:24:18;99747.84;;;24.95;42.67
64368;BME280;50692;53.314;-6.300;2023-07-28T12:27:04;99733.94;;;25.32;42.34
64368;BME280;50692;53.314;-6.300;2023-07-28T12:29:51;99744.84;;;25.52;42.21
64368;BME280;50692;53.314;-6.300;2023-07-28T12:32:37;99746.50;;;25.53;41.37
64368;BME280;50692;53.314;-6.300;2023-07-28T12:35:25;99734.22;;;25.51;41.94
64368;BME280;50692;53.314;-6.300;2023-07-28T12:38:12;99737.53;;;25.40;42.73
64368;BME280;50692;53.314;-6.300;2023-07-28T12:40:58;99734.91;;;25.18;42.81
64368;BME280;50692;53.314;-6.300;2023-07-28T12:43:44;99741.41;;;24.68;43.17
64368;BME280;50692;53.314;-6.300;2023-07-28T12:46:30;99746.00;;;24.46;43.82
64368;BME280;50692;53.314;-6.300;2023-07-28T12:49:16;99743.06;;;24.40;44.04
64368;BME280;50692;53.314;-6.300;2023-07-28T12:52:06;99724.13;;;24.62;44.32
64368;BME280;50692;53.314;-6.300;2023-07-28T12:54:52;99739.88;;;24.86;44.01
64368;BME280;50692;53.314;-6.300;2023-07-28T12:57:38;99738.13;;;25.07;44.05
64368;BME280;50692;53.314;-6.300;2023-07-28T13:00:24;99735.16;;;24.95;43.20
64368;BME280;50692;53.314;-6.300;2023-07-28T13:03:10;99735.28;;;24.80;43.98
64368;BME280;50692;53.314;-6.300;2023-07-28T13:05:55;99736.22;;;24.66;44.54
64368;BME280;50692;53.314;-6.300;2023-07-28T13:08:41;99740.56;;;24.67;45.02
64368;BME280;50692;53.314;-6.300;2023-07-28T13:11:29;99739.59;;;24.47;45.48
64368;BME280;50692;53.314;-6.300;2023-07-28T13:14:14;99742.25;;;24.40;46.14
64368;BME280;50692;53.314;-6.300;2023-07-28T13:17:00;99730.59;;;24.39;45.94
64368;BME280;50692;53.314;-6.300;2023-07-28T13:19:46;99727.53;;;24.49;45.17
64368;BME280;50692;53.314;-6.300;2023-07-28T13:22:32;99730.41;;;24.69;44.94
64368;BME280;50692;53.314;-6.300;2023-07-28T13:25:18;99713.41;;;24.75;44.78
64368;BME280;50692;53.314;-6.300;2023-07-28T13:28:04;99703.75;;;24.94;44.11
64368;BME280;50692;53.314;-6.300;2023-07-28T13:30:50;99702.13;;;25.41;44.09
64368;BME280;50692;53.314;-6.300;2023-07-28T13:33:35;99698.13;;;25.85;42.67
64368;BME280;50692;53.314;-6.300;2023-07-28T13:36:21;99709.00;;;25.98;42.08
64368;BME280;50692;53.314;-6.300;2023-07-28T13:39:07;99721.16;;;25.68;42.18
64368;BME280;50692;53.314;-6.300;2023-07-28T13:41:53;99723.38;;;25.09;43.91
64368;BME280;50692;53.314;-6.300;2023-07-28T13:44:39;99725.34;;;24.59;46.06
64368;BME280;50692;53.314;-6.300;2023-07-28T13:47:25;99724.09;;;24.12;47.27
64368;BME280;50692;53.314;-6.300;2023-07-28T13:50:11;99725.03;;;23.83;47.99
64368;BME280;50692;53.314;-6.300;2023-07-28T13:52:57;99721.22;;;23.78;47.38
64368;BME280;50692;53.314;-6.300;2023-07-28T13:55:43;99706.53;;;23.80;47.12
64368;BME280;50692;53.314;-6.300;2023-07-28T13:58:28;99699.59;;;24.14;46.88
64368;BME280;50692;53.314;-6.300;2023-07-28T14:01:14;99704.09;;;24.84;45.87
64368;BME280;50692;53.314;-6.300;2023-07-28T14:04:00;99702.47;;;25.18;44.78
64368;BME280;50692;53.314;-6.300;2023-07-28T14:06:46;99696.38;;;25.57;43.95
64368;BME280;50692;53.314;-6.300;2023-07-28T14:09:32;99701.19;;;25.62;43.78
64368;BME280;50692;53.314;-6.300;2023-07-28T14:12:17;99707.94;;;25.38;43.88
64368;BME280;50692;53.314;-6.300;2023-07-28T14:15:04;99702.38;;;25.05;44.62
64368;BME280;50692;53.314;-6.300;2023-07-28T14:17:52;99691.56;;;25.05;44.49
64368;BME280;50692;53.314;-6.300;2023-07-28T14:20:37;99684.47;;;25.04;45.14
64368;BME280;50692;53.314;-6.300;2023-07-28T14:23:25;99684.78;;;24.87;44.96
64368;BME280;50692;53.314;-6.300;2023-07-28T14:26:12;99681.00;;;24.82;45.06
64368;BME280;50692;53.314;-6.300;2023-07-28T14:28:57;99682.41;;;24.71;45.76
64368;BME280;50692;53.314;-6.300;2023-07-28T14:31:43;99688.75;;;24.57;46.15
64368;BME280;50692;53.314;-6.300;2023-07-28T14:34:29;99684.72;;;24.25;46.21
64368;BME280;50692;53.314;-6.300;2023-07-28T14:37:15;99675.78;;;24.24;46.62